createdAt,value
2018-05-15T05:00:55.677Z,14.11
2018-05-15T05:03:28.942Z,14.19
2018-05-15T05:06:02.227Z,14.24
2018-05-15T05:08:35.480Z,14.24
2018-05-15T05:11:09.529Z,14.23
2018-05-15T05:13:42.789Z,14.35
2018-05-15T05:16:16.829Z,14.42
2018-05-15T05:18:50.083Z,14.48
2018-05-15T05:21:24.138Z,14.59
2018-05-15T05:23:57.386Z,14.63
2018-05-15T05:26:30.651Z,14.73
2018-05-15T05:29:03.910Z,14.72
2018-05-15T05:31:37.184Z,14.81
2018-05-15T05:34:11.206Z,14.91
2018-05-15T05:36:44.482Z,14.89
2018-05-15T05:39:17.736Z,14.91
2018-05-15T05:41:51.004Z,15.03
2018-05-15T05:44:24.254Z,15.12
2018-05-15T05:46:57.524Z,15.18
2018-05-15T05:49:30.792Z,15.25
2018-05-15T05:52:04.117Z,15.36
2018-05-15T05:54:37.328Z,15.41
2018-05-15T05:57:10.600Z,15.45
2018-05-15T05:59:43.853Z,15.45
2018-05-15T06:02:17.124Z,15.46
2018-05-15T06:04:50.385Z,15.50
2018-05-15T06:07:23.715Z,15.57
2018-05-15T06:09:56.921Z,15.61
2018-05-15T06:12:30.192Z,15.59
2018-05-15T06:15:03.448Z,15.59
2018-05-15T06:17:36.733Z,15.71
2018-05-15T06:20:09.978Z,15.83
2018-05-15T06:22:43.260Z,15.89
2018-05-15T06:25:16.509Z,15.97
2018-05-15T06:27:49.785Z,16.09
2018-05-15T06:30:23.045Z,16.12
2018-05-15T06:32:57.090Z,16.11
2018-05-15T06:35:30.344Z,16.08
2018-05-15T06:38:03.619Z,16.08
2018-05-15T06:40:36.880Z,16.07
2018-05-15T06:43:10.171Z,16.05
2018-05-15T06:45:43.416Z,16.01
2018-05-15T06:48:16.684Z,16.02
2018-05-15T06:50:49.946Z,16.06
2018-05-15T06:53:23.223Z,16.15
2018-05-15T06:55:56.475Z,16.22
2018-05-15T06:58:29.752Z,16.21
2018-05-15T07:01:03.009Z,16.29
2018-05-15T07:03:37.923Z,16.45
2018-05-15T07:06:11.330Z,16.47
2018-05-15T07:08:44.928Z,16.51
2018-05-15T07:11:18.345Z,16.58
2018-05-15T07:13:52.689Z,16.62
2018-05-15T07:16:25.964Z,16.67
2018-05-15T07:18:59.244Z,16.68
2018-05-15T07:21:33.273Z,16.74
2018-05-15T07:24:06.536Z,16.75
2018-05-15T07:26:40.567Z,16.82
2018-05-15T07:29:13.843Z,16.88
2018-05-15T07:31:47.100Z,16.90
2018-05-15T07:34:20.376Z,16.91
2018-05-15T07:36:53.650Z,16.99
2018-05-15T07:39:27.159Z,17.11
2018-05-15T07:42:00.412Z,17.19
2018-05-15T07:44:34.448Z,17.24
2018-05-15T07:47:07.707Z,17.26
2018-05-15T07:49:40.979Z,17.28
2018-05-15T07:52:14.244Z,17.31
2018-05-15T07:54:47.532Z,17.30
2018-05-15T07:57:20.780Z,17.36
2018-05-15T07:59:54.067Z,17.40
2018-05-15T08:02:27.324Z,17.30
2018-05-15T08:05:00.594Z,17.22
2018-05-15T08:07:33.854Z,17.24
2018-05-15T08:10:07.900Z,17.30
2018-05-15T08:12:41.170Z,17.40
2018-05-15T08:15:14.445Z,17.54
2018-05-15T08:17:47.703Z,17.66
2018-05-15T08:20:20.977Z,17.68
2018-05-15T08:22:54.220Z,17.66
2018-05-15T08:25:27.492Z,17.67
2018-05-15T08:28:00.751Z,17.62
2018-05-15T08:30:34.019Z,17.62
2018-05-15T08:33:07.276Z,17.60
2018-05-15T08:35:40.557Z,17.58
2018-05-15T08:38:13.803Z,17.65
2018-05-15T08:40:47.080Z,17.75
2018-05-15T08:43:20.335Z,17.77
2018-05-15T08:45:53.608Z,17.80
2018-05-15T08:48:26.877Z,17.83
2018-05-15T08:51:00.147Z,17.86
2018-05-15T08:53:33.408Z,18.02
2018-05-15T08:56:06.686Z,18.20
2018-05-15T08:58:40.741Z,18.36
2018-05-15T09:01:14.015Z,18.50
2018-05-15T09:03:47.370Z,18.38
2018-05-15T09:06:21.423Z,18.30
2018-05-15T09:08:54.683Z,18.18
2018-05-15T09:11:28.751Z,18.17
2018-05-15T09:14:02.009Z,18.14
2018-05-15T09:16:35.283Z,18.09
2018-05-15T09:19:09.335Z,18.13
2018-05-15T09:21:43.331Z,18.15
2018-05-15T09:24:16.589Z,18.11
2018-05-15T09:26:49.863Z,18.16
2018-05-15T09:29:23.139Z,18.29
2018-05-15T09:31:56.392Z,18.51
2018-05-15T09:34:29.656Z,18.76
2018-05-15T09:37:02.939Z,18.89
2018-05-15T09:39:36.203Z,19.00
2018-05-15T09:42:09.565Z,19.00
2018-05-15T09:44:42.727Z,19.05
2018-05-15T09:47:16.012Z,19.07
2018-05-15T09:49:49.277Z,19.18
2018-05-15T09:52:22.600Z,19.31
2018-05-15T09:54:55.812Z,19.47
2018-05-15T09:57:29.079Z,19.61
2018-05-15T10:00:02.340Z,19.63
2018-05-15T10:02:35.615Z,19.80
2018-05-15T10:05:09.650Z,19.85
2018-05-15T10:07:46.994Z,19.78
2018-05-15T10:10:20.186Z,19.69
2018-05-15T10:12:54.232Z,19.58
2018-05-15T10:15:27.489Z,19.56
2018-05-15T10:18:00.769Z,19.35
2018-05-15T10:20:34.024Z,19.14
2018-05-15T10:23:07.407Z,19.02
2018-05-15T10:25:40.682Z,19.01
2018-05-15T10:28:14.099Z,18.95
2018-05-15T10:30:47.355Z,18.90
2018-05-15T10:33:20.635Z,18.54
2018-05-15T10:35:53.888Z,18.24
2018-05-15T10:38:27.171Z,17.87
2018-05-15T10:41:00.441Z,17.61
2018-05-15T10:43:33.964Z,17.47
2018-05-15T10:46:07.228Z,17.17
2018-05-15T10:48:40.509Z,16.94
2018-05-15T10:51:13.762Z,16.90
2018-05-15T10:53:47.036Z,16.93
2018-05-15T10:56:21.120Z,16.89
2018-05-15T10:58:54.387Z,16.94
2018-05-15T11:01:28.429Z,16.90
2018-05-15T11:04:01.732Z,16.87
2018-05-15T11:06:34.990Z,16.83
2018-05-15T11:09:08.261Z,16.85
2018-05-15T11:11:41.514Z,16.82
2018-05-15T11:14:15.564Z,16.85
2018-05-15T11:16:48.828Z,16.86
2018-05-15T11:19:40.604Z,16.84
2018-05-15T11:22:31.863Z,16.82
2018-05-15T11:25:05.130Z,16.84
2018-05-15T11:27:39.168Z,16.87
2018-05-15T11:30:12.464Z,16.84
2018-05-15T11:32:45.721Z,16.82
2018-05-15T11:35:18.993Z,16.87
2018-05-15T11:37:52.255Z,16.90
2018-05-15T11:40:26.301Z,16.98
2018-05-15T11:42:59.547Z,17.02
2018-05-15T11:45:33.590Z,17.00
2018-05-15T11:48:07.442Z,17.00
2018-05-15T11:50:41.195Z,17.06
2018-05-15T11:53:14.010Z,17.11
2018-05-15T11:55:46.644Z,17.22
2018-05-15T11:58:19.942Z,17.34
2018-05-15T12:00:53.175Z,17.43
2018-05-15T12:03:26.429Z,17.54
2018-05-15T12:06:00.468Z,17.55
2018-05-15T12:08:33.732Z,17.64
2018-05-15T12:11:07.772Z,17.79
2018-05-15T12:13:41.024Z,17.96
2018-05-15T12:16:14.305Z,18.11
2018-05-15T12:18:47.563Z,18.23
2018-05-15T12:21:20.840Z,18.31
2018-05-15T12:23:54.099Z,18.35
2018-05-15T12:26:27.375Z,18.28
2018-05-15T12:29:00.631Z,18.28
2018-05-15T12:31:33.910Z,18.21
2018-05-15T12:34:07.170Z,18.10
2018-05-15T12:36:40.435Z,17.97
2018-05-15T12:39:13.689Z,18.07
2018-05-15T12:41:47.112Z,18.20
2018-05-15T12:44:20.996Z,18.39
2018-05-15T12:46:54.271Z,18.51
2018-05-15T12:49:28.283Z,18.50
2018-05-15T12:52:01.560Z,18.38
2018-05-15T12:54:34.816Z,18.42
2018-05-15T12:57:08.104Z,18.35
2018-05-15T12:59:41.359Z,18.28
2018-05-15T13:02:14.636Z,18.18
2018-05-15T13:04:47.897Z,18.14
2018-05-15T13:07:21.167Z,18.11
2018-05-15T13:09:54.432Z,17.92
2018-05-15T13:12:28.468Z,17.81
2018-05-15T13:15:01.731Z,17.65
2018-05-15T13:17:35.013Z,17.63
2018-05-15T13:20:08.301Z,17.59
2018-05-15T13:22:41.556Z,17.54
2018-05-15T13:25:14.840Z,17.56
2018-05-15T13:27:48.093Z,17.56
2018-05-15T13:30:21.355Z,17.62
2018-05-15T13:32:54.630Z,17.66
2018-05-15T13:35:28.022Z,17.63
2018-05-15T13:38:01.169Z,17.59
2018-05-15T13:40:34.447Z,17.56
2018-05-15T13:43:07.699Z,17.52
2018-05-15T13:45:40.968Z,17.43
2018-05-15T13:48:14.229Z,17.36
2018-05-15T13:50:47.504Z,17.36
2018-05-15T13:53:20.755Z,17.29
2018-05-15T13:55:54.033Z,17.25
2018-05-15T13:58:27.283Z,17.26
2018-05-15T14:01:00.560Z,17.23
2018-05-15T14:03:33.812Z,17.22
2018-05-15T14:06:07.096Z,17.30
2018-05-15T14:08:40.363Z,17.36
2018-05-15T14:11:13.631Z,17.43
2018-05-15T14:13:46.888Z,17.53
2018-05-15T14:16:20.156Z,17.60
2018-05-15T14:18:54.175Z,17.63
2018-05-15T14:21:27.441Z,17.72
2018-05-15T14:24:00.696Z,17.83
2018-05-15T14:26:34.740Z,18.01
2018-05-15T14:29:08.016Z,18.20
2018-05-15T14:31:41.274Z,18.37
2018-05-15T14:34:14.544Z,18.50
2018-05-15T14:36:47.799Z,18.63
2018-05-15T14:39:21.075Z,18.90
2018-05-15T14:42:12.673Z,19.22
2018-05-15T14:44:45.949Z,19.60
2018-05-15T14:47:19.198Z,20.09
2018-05-15T14:49:52.473Z,20.63
2018-05-15T14:52:25.724Z,21.16
2018-05-15T14:54:59.001Z,21.64
2018-05-15T14:57:32.245Z,22.13
2018-05-15T15:00:06.300Z,22.24
2018-05-15T15:02:39.549Z,22.64
2018-05-15T15:05:12.824Z,22.98
2018-05-15T15:07:46.145Z,23.24
2018-05-15T15:10:19.355Z,23.58
2018-05-15T15:12:53.372Z,23.80
2018-05-15T15:15:26.642Z,23.89
2018-05-15T15:17:59.889Z,24.14
2018-05-15T15:20:33.936Z,24.26
2018-05-15T15:23:07.197Z,24.58
2018-05-15T15:25:40.468Z,24.29
2018-05-15T15:28:13.721Z,24.09
2018-05-15T15:30:47.008Z,24.18
2018-05-15T15:33:20.261Z,24.51
2018-05-15T15:35:53.534Z,24.79
2018-05-15T15:38:26.797Z,24.77
2018-05-15T15:41:00.068Z,25.03
2018-05-15T15:43:33.343Z,25.21
2018-05-15T15:46:06.591Z,25.44
2018-05-15T15:48:40.623Z,25.75
2018-05-15T15:51:13.897Z,26.29
2018-05-15T15:53:47.926Z,26.63
2018-05-15T15:56:21.212Z,26.19
2018-05-15T15:58:55.236Z,26.42
2018-05-15T16:01:28.525Z,26.77
2018-05-15T16:04:01.783Z,26.74
2018-05-15T16:06:35.052Z,26.03
2018-05-15T16:09:08.329Z,24.99
2018-05-15T16:11:41.591Z,24.83
2018-05-15T16:14:15.624Z,24.36
2018-05-15T16:16:48.901Z,24.00
2018-05-15T16:19:22.160Z,23.97
2018-05-15T16:21:55.435Z,24.07
2018-05-15T16:24:28.688Z,24.34
2018-05-15T16:27:01.964Z,24.59
2018-05-15T16:29:35.227Z,24.45
2018-05-15T16:32:08.509Z,24.66
2018-05-15T16:34:41.761Z,24.06
2018-05-15T16:37:15.040Z,22.94
2018-05-15T16:39:49.069Z,22.80
2018-05-15T16:42:22.339Z,22.85
2018-05-15T16:44:55.792Z,22.07
2018-05-15T16:47:29.146Z,21.43
2018-05-15T16:50:02.329Z,20.64
2018-05-15T16:52:36.373Z,19.87
2018-05-15T16:55:09.623Z,19.24
2018-05-15T16:57:43.668Z,18.92
2018-05-15T17:00:16.956Z,18.82
2018-05-15T17:02:50.219Z,18.73
2018-05-15T17:05:23.492Z,18.67
2018-05-15T17:07:56.782Z,18.73
2018-05-15T17:10:30.044Z,18.58
2018-05-15T17:13:03.295Z,18.26
2018-05-15T17:15:36.579Z,17.60
2018-05-15T17:18:09.841Z,17.27
2018-05-15T17:20:43.117Z,17.20
2018-05-15T17:23:16.387Z,17.13
2018-05-15T17:25:50.421Z,17.01
2018-05-15T17:28:23.672Z,16.96
2018-05-15T17:30:56.968Z,17.07
2018-05-15T17:33:30.229Z,17.21
2018-05-15T17:36:03.513Z,17.42
2018-05-15T17:38:36.763Z,17.67
2018-05-15T17:41:10.813Z,17.77
2018-05-15T17:43:44.074Z,17.89
2018-05-15T17:46:18.128Z,17.79
2018-05-15T17:48:51.385Z,17.40
2018-05-15T17:51:25.427Z,16.30
2018-05-15T17:53:58.699Z,15.72
2018-05-15T17:56:34.064Z,15.34
2018-05-15T17:59:07.326Z,15.25
2018-05-15T18:01:41.380Z,15.15
2018-05-15T18:04:14.758Z,14.90
2018-05-15T18:06:48.037Z,14.93
2018-05-15T18:09:21.313Z,15.09
2018-05-15T18:11:55.358Z,15.20
2018-05-15T18:14:28.864Z,15.25
2018-05-15T18:17:02.635Z,15.28
2018-05-15T18:19:35.907Z,15.32
2018-05-15T18:22:09.234Z,15.35
2018-05-15T18:24:47.074Z,15.34
2018-05-15T18:27:20.368Z,15.38
2018-05-15T18:29:53.617Z,15.33
2018-05-15T18:32:26.899Z,15.25
2018-05-15T18:35:00.156Z,15.30
2018-05-15T18:37:33.434Z,15.28
2018-05-15T18:40:06.693Z,15.24
2018-05-15T18:42:39.967Z,15.29
2018-05-15T18:45:13.232Z,15.28
2018-05-15T18:47:46.757Z,15.29
2018-05-15T18:50:20.102Z,15.28
2018-05-15T18:52:53.391Z,15.34
2018-05-15T18:55:26.651Z,15.41
2018-05-15T18:58:00.026Z,15.45
2018-05-15T19:00:33.181Z,15.42
2018-05-15T19:03:06.471Z,15.38
2018-05-15T19:05:40.496Z,15.33
2018-05-15T19:08:13.768Z,15.31
2018-05-15T19:10:47.792Z,15.22
2018-05-15T19:13:21.117Z,15.14
2018-05-15T19:15:54.380Z,15.01
2018-05-15T19:18:27.665Z,15.03
2018-05-15T19:21:01.697Z,15.01
2018-05-15T19:23:34.977Z,14.99
2018-05-15T19:26:09.000Z,14.89
2018-05-15T19:28:42.308Z,14.79
2018-05-15T19:31:19.060Z,14.81
2018-05-15T19:33:52.365Z,14.82
2018-05-15T19:36:31.577Z,14.80
2018-05-15T19:39:06.537Z,14.77
2018-05-15T19:41:39.816Z,14.71
2018-05-15T19:44:13.112Z,14.60
2018-05-15T19:46:46.369Z,14.46
2018-05-15T19:49:19.667Z,14.37
2018-05-15T19:51:53.003Z,14.26
2018-05-15T19:54:26.204Z,14.17
2018-05-15T19:56:59.459Z,14.07
2018-05-15T19:59:32.744Z,13.97
2018-05-15T20:02:06.000Z,13.89
2018-05-15T20:04:39.281Z,13.84
2018-05-15T20:07:12.539Z,13.78
2018-05-15T20:09:45.805Z,13.75
2018-05-15T20:12:19.062Z,13.76
2018-05-15T20:14:52.344Z,13.82
2018-05-15T20:17:25.603Z,13.88
2018-05-15T20:19:58.873Z,13.83
2018-05-15T20:22:32.136Z,13.82
2018-05-15T20:25:05.429Z,13.82
2018-05-15T20:27:38.680Z,13.75
2018-05-15T20:30:12.923Z,13.71
2018-05-15T20:32:46.189Z,13.68
2018-05-15T20:35:19.586Z,13.64
2018-05-15T20:37:52.843Z,13.59
2018-05-15T20:40:26.120Z,13.52
2018-05-15T20:42:59.372Z,13.49
2018-05-15T20:45:32.677Z,13.47
2018-05-15T20:48:06.706Z,13.40
2018-05-15T20:50:40.019Z,13.33
2018-05-15T20:53:13.268Z,13.33
2018-05-15T20:55:47.311Z,13.15
2018-05-15T20:58:20.595Z,13.13
2018-05-15T21:00:53.877Z,13.11
2018-05-15T21:03:27.908Z,13.06
2018-05-15T21:06:01.180Z,13.08
2018-05-15T21:08:35.200Z,13.01
2018-05-15T21:11:09.243Z,12.95
2018-05-15T21:13:42.495Z,12.97
2018-05-15T21:16:16.532Z,12.99
2018-05-15T21:18:49.792Z,12.97
2018-05-15T21:21:23.083Z,12.94
2018-05-15T21:23:56.331Z,12.97
2018-05-15T21:26:29.616Z,12.97
2018-05-15T21:29:02.869Z,12.94
2018-05-15T21:31:36.148Z,12.90
2018-05-15T21:34:09.395Z,12.95
2018-05-15T21:36:42.754Z,13.03
2018-05-15T21:39:16.697Z,13.08
2018-05-15T21:41:49.975Z,13.05
2018-05-15T21:44:24.071Z,13.15
2018-05-15T21:46:57.282Z,13.13
2018-05-15T21:49:31.309Z,13.08
2018-05-15T21:52:04.591Z,12.98
2018-05-15T21:54:37.849Z,13.06
2018-05-15T21:57:11.125Z,13.06
2018-05-15T21:59:44.389Z,13.05
2018-05-15T22:02:17.671Z,13.06
2018-05-15T22:04:50.929Z,13.13
2018-05-15T22:07:24.211Z,13.13
2018-05-15T22:09:57.461Z,13.13
2018-05-15T22:12:48.400Z,13.16
2018-05-15T22:15:39.544Z,13.14
2018-05-15T22:18:30.630Z,13.00
2018-05-15T22:21:21.680Z,12.96
2018-05-15T22:23:54.912Z,12.87
2018-05-15T22:26:28.197Z,12.81
2018-05-15T22:29:01.463Z,12.76
